createdAt,value
2017-05-07T00:01:24.242Z,12.10
2017-05-07T00:03:51.041Z,12.35
2017-05-07T00:06:17.379Z,12.49
2017-05-07T00:08:43.748Z,12.28
2017-05-07T00:11:10.128Z,12.17
2017-05-07T00:13:36.468Z,11.56
2017-05-07T00:16:02.840Z,11.55
2017-05-07T00:18:29.201Z,12.39
2017-05-07T00:20:55.745Z,12.85
2017-05-07T00:23:22.121Z,11.63
2017-05-07T00:25:48.446Z,12.23
2017-05-07T00:28:14.801Z,12.48
2017-05-07T00:30:41.318Z,12.65
2017-05-07T00:33:07.660Z,12.72
2017-05-07T00:35:33.991Z,12.31
2017-05-07T00:38:00.333Z,12.44
2017-05-07T00:40:26.808Z,12.01
2017-05-07T00:42:53.167Z,12.30
2017-05-07T00:45:19.508Z,12.09
2017-05-07T00:47:45.893Z,11.56
2017-05-07T00:50:12.313Z,12.19
2017-05-07T00:52:38.656Z,12.83
2017-05-07T00:55:04.982Z,11.62
2017-05-07T00:57:31.340Z,11.32
2017-05-07T00:59:57.700Z,11.83
2017-05-07T01:02:24.084Z,11.02
2017-05-07T01:04:50.422Z,11.24
2017-05-07T01:07:16.968Z,12.34
2017-05-07T01:09:43.304Z,11.09
2017-05-07T01:12:09.682Z,12.21
2017-05-07T01:14:36.030Z,11.16
2017-05-07T01:17:02.362Z,11.48
2017-05-07T01:19:28.714Z,12.38
2017-05-07T01:21:55.032Z,11.53
2017-05-07T01:24:21.356Z,12.24
2017-05-07T01:26:47.816Z,11.50
2017-05-07T01:29:14.146Z,10.96
2017-05-07T01:31:40.478Z,11.33
2017-05-07T01:34:06.827Z,11.48
2017-05-07T01:36:33.235Z,10.93
2017-05-07T01:38:59.563Z,11.07
2017-05-07T01:41:25.921Z,11.06
2017-05-07T01:43:52.237Z,10.99
2017-05-07T01:46:18.551Z,10.87
2017-05-07T01:48:44.893Z,11.09
2017-05-07T01:51:11.214Z,11.10
2017-05-07T01:53:37.583Z,11.09
2017-05-07T01:56:03.914Z,11.16
2017-05-07T01:58:30.248Z,11.12
2017-05-07T02:00:56.585Z,10.44
2017-05-07T02:03:22.898Z,10.32
2017-05-07T02:05:49.230Z,11.39
2017-05-07T02:08:15.583Z,11.64
2017-05-07T02:10:41.913Z,11.21
2017-05-07T02:13:08.237Z,11.28
2017-05-07T02:15:34.566Z,11.97
2017-05-07T02:18:00.900Z,11.84
2017-05-07T02:20:27.217Z,11.37
2017-05-07T02:22:53.560Z,10.85
2017-05-07T02:25:19.886Z,10.83
2017-05-07T02:27:46.251Z,10.87
2017-05-07T02:30:12.636Z,10.83
2017-05-07T02:32:39.052Z,11.62
2017-05-07T02:35:05.384Z,11.71
2017-05-07T02:37:31.733Z,10.49
2017-05-07T02:39:58.540Z,9.92
2017-05-07T02:42:24.899Z,9.72
2017-05-07T02:44:51.253Z,9.98
2017-05-07T02:47:17.607Z,10.93
2017-05-07T02:49:44.317Z,11.06
2017-05-07T02:52:10.646Z,10.87
2017-05-07T02:54:36.980Z,11.25
2017-05-07T02:57:03.328Z,10.23
2017-05-07T02:59:29.746Z,11.25
2017-05-07T03:01:56.081Z,10.54
2017-05-07T03:04:22.441Z,9.95
2017-05-07T03:06:48.815Z,10.31
2017-05-07T03:09:15.217Z,10.40
2017-05-07T03:11:41.546Z,10.28
2017-05-07T03:14:07.876Z,10.97
2017-05-07T03:16:34.316Z,10.78
2017-05-07T03:19:00.629Z,10.76
2017-05-07T03:21:26.962Z,10.10
2017-05-07T03:23:53.274Z,9.85
2017-05-07T03:26:19.591Z,10.11
2017-05-07T03:28:45.928Z,9.81
2017-05-07T03:31:12.277Z,9.51
2017-05-07T03:33:38.599Z,10.11
2017-05-07T03:36:04.949Z,9.80
2017-05-07T03:38:31.275Z,9.28
2017-05-07T03:40:57.652Z,9.22
2017-05-07T03:43:23.982Z,9.22
2017-05-07T03:45:50.348Z,9.42
2017-05-07T03:48:16.700Z,9.69
2017-05-07T03:50:43.976Z,9.61
2017-05-07T03:53:10.346Z,9.44
2017-05-07T03:55:36.694Z,9.28
2017-05-07T03:58:03.078Z,9.30
2017-05-07T04:00:29.395Z,9.99
2017-05-07T04:02:55.734Z,10.70
2017-05-07T04:05:22.081Z,10.39
2017-05-07T04:07:48.409Z,10.23
2017-05-07T04:10:14.741Z,9.80
2017-05-07T04:12:41.200Z,10.37
2017-05-07T04:15:07.585Z,11.05
2017-05-07T04:17:33.927Z,10.11
2017-05-07T04:20:00.249Z,9.99
2017-05-07T04:22:26.685Z,10.10
2017-05-07T04:24:53.035Z,9.80
2017-05-07T04:27:19.385Z,10.10
2017-05-07T04:29:45.732Z,10.35
2017-05-07T04:32:12.126Z,10.67
2017-05-07T04:34:38.462Z,11.03
2017-05-07T04:37:04.799Z,10.13
2017-05-07T04:39:31.128Z,9.35
2017-05-07T04:41:57.461Z,9.56
2017-05-07T04:44:23.803Z,10.08
2017-05-07T04:46:50.181Z,10.78
2017-05-07T04:49:16.512Z,10.94
2017-05-07T04:51:42.848Z,10.31
2017-05-07T04:54:09.172Z,9.83
2017-05-07T04:56:35.508Z,9.80
2017-05-07T04:59:01.830Z,9.31
2017-05-07T05:01:28.347Z,9.56
2017-05-07T05:03:54.673Z,10.33
2017-05-07T05:06:21.022Z,9.59
2017-05-07T05:08:47.382Z,10.11
2017-05-07T05:11:13.728Z,10.45
2017-05-07T05:13:40.054Z,9.88
2017-05-07T05:16:06.452Z,10.09
2017-05-07T05:18:32.820Z,9.79
2017-05-07T05:21:06.171Z,9.76
2017-05-07T05:27:00.129Z,10.17
2017-05-07T05:32:32.251Z,10.33
2017-05-07T05:34:58.605Z,10.52
2017-05-07T05:37:25.167Z,10.55
2017-05-07T05:39:51.546Z,10.42
2017-05-07T05:42:17.882Z,10.63
2017-05-07T05:44:44.222Z,10.68
2017-05-07T05:47:10.718Z,10.54
2017-05-07T05:49:37.022Z,10.90
2017-05-07T05:52:03.333Z,11.02
2017-05-07T05:54:29.681Z,11.06
2017-05-07T05:56:56.178Z,10.95
2017-05-07T05:59:22.513Z,11.25
2017-05-07T06:01:48.861Z,11.57
2017-05-07T06:04:15.196Z,11.47
2017-05-07T06:06:41.551Z,11.65
2017-05-07T06:09:07.896Z,11.72
2017-05-07T06:11:34.234Z,11.64
2017-05-07T06:14:00.602Z,11.49
2017-05-07T06:16:26.922Z,11.70
2017-05-07T06:18:53.299Z,11.77
2017-05-07T06:21:19.622Z,12.10
2017-05-07T06:23:45.957Z,11.68
2017-05-07T06:26:12.290Z,12.30
2017-05-07T06:28:38.640Z,12.09
2017-05-07T06:31:04.978Z,12.25
2017-05-07T06:33:31.300Z,12.37
2017-05-07T06:35:57.627Z,12.49
2017-05-07T06:38:24.148Z,12.21
2017-05-07T06:40:50.487Z,12.05
2017-05-07T06:43:16.835Z,12.50
2017-05-07T06:45:43.165Z,12.13
2017-05-07T06:48:09.635Z,12.08
2017-05-07T06:50:35.965Z,12.68
2017-05-07T06:53:02.293Z,12.51
2017-05-07T06:55:30.190Z,12.84
2017-05-07T06:57:57.210Z,12.52
2017-05-07T07:00:23.638Z,12.51
2017-05-07T07:02:49.988Z,12.46
2017-05-07T07:05:16.380Z,12.67
2017-05-07T07:07:42.754Z,12.72
2017-05-07T07:10:09.074Z,12.89
2017-05-07T07:12:35.398Z,13.12
2017-05-07T07:15:01.825Z,12.88
2017-05-07T07:17:28.139Z,13.08
2017-05-07T07:19:54.513Z,13.37
2017-05-07T07:22:20.850Z,13.65
2017-05-07T07:24:47.166Z,13.37
2017-05-07T07:27:13.503Z,13.69
2017-05-07T07:29:39.872Z,13.53
2017-05-07T07:32:06.288Z,13.53
2017-05-07T07:34:32.621Z,13.14
2017-05-07T07:36:58.994Z,13.39
2017-05-07T07:39:25.363Z,13.35
2017-05-07T07:41:51.698Z,13.40
2017-05-07T07:44:18.073Z,13.43
2017-05-07T07:46:44.431Z,13.81
2017-05-07T07:49:10.889Z,13.98
2017-05-07T07:51:37.255Z,13.77
2017-05-07T07:54:03.581Z,13.87
2017-05-07T07:56:29.949Z,13.66
2017-05-07T07:58:56.355Z,13.38
2017-05-07T08:01:22.683Z,13.64
2017-05-07T08:03:49.047Z,13.48
2017-05-07T08:06:15.390Z,13.83
2017-05-07T08:08:41.726Z,14.05
2017-05-07T08:11:08.042Z,14.12
2017-05-07T08:13:34.362Z,14.31
2017-05-07T08:16:00.691Z,14.33
2017-05-07T08:18:27.026Z,14.52
2017-05-07T08:20:53.368Z,14.75
2017-05-07T08:23:19.665Z,14.83
2017-05-07T08:25:45.993Z,14.68
2017-05-07T08:28:12.310Z,14.90
2017-05-07T08:30:38.609Z,15.07
2017-05-07T08:33:04.954Z,15.19
2017-05-07T08:35:31.292Z,15.04
2017-05-07T08:37:57.656Z,14.89
2017-05-07T08:40:23.990Z,14.50
2017-05-07T08:42:50.312Z,14.90
2017-05-07T08:45:16.650Z,14.93
2017-05-07T08:47:42.965Z,14.92
2017-05-07T08:50:09.303Z,15.07
2017-05-07T08:52:35.641Z,15.08
2017-05-07T08:55:01.976Z,15.29
2017-05-07T08:57:28.305Z,15.16
2017-05-07T08:59:54.609Z,15.50
2017-05-07T09:02:20.921Z,15.82
2017-05-07T09:04:47.346Z,15.91
2017-05-07T09:07:13.678Z,16.23
2017-05-07T09:09:40.078Z,16.33
2017-05-07T09:12:24.210Z,15.95
2017-05-07T09:15:06.317Z,16.24
2017-05-07T09:17:33.418Z,16.24
2017-05-07T09:19:59.749Z,16.22
2017-05-07T09:22:26.058Z,16.20
2017-05-07T09:24:52.454Z,16.11
2017-05-07T09:27:18.917Z,16.53
2017-05-07T09:29:45.258Z,16.59
2017-05-07T09:32:12.646Z,16.49
2017-05-07T09:34:39.117Z,16.86
2017-05-07T09:37:05.504Z,17.09
2017-05-07T09:39:31.850Z,16.57
2017-05-07T09:41:58.182Z,17.35
2017-05-07T09:44:24.513Z,17.40
2017-05-07T09:46:50.890Z,17.38
2017-05-07T09:49:17.213Z,17.66
2017-05-07T09:51:43.536Z,17.98
2017-05-07T09:54:09.896Z,18.09
2017-05-07T09:56:36.212Z,18.19
2017-05-07T09:59:02.533Z,18.19
2017-05-07T10:01:28.853Z,18.17
2017-05-07T10:03:55.167Z,18.32
2017-05-07T10:06:21.498Z,17.92
2017-05-07T10:08:47.843Z,17.99
2017-05-07T10:11:14.145Z,18.22
2017-05-07T10:13:40.480Z,18.43
2017-05-07T10:16:06.820Z,18.07
2017-05-07T10:18:33.149Z,17.89
2017-05-07T10:20:59.459Z,18.17
2017-05-07T10:23:26.051Z,18.22
2017-05-07T10:25:56.485Z,18.09
2017-05-07T10:28:28.491Z,18.30
2017-05-07T10:30:55.912Z,18.23
2017-05-07T10:33:23.629Z,18.23
2017-05-07T10:35:53.487Z,18.53
2017-05-07T10:38:20.222Z,18.24
2017-05-07T10:40:46.948Z,18.33
2017-05-07T10:43:13.582Z,18.61
2017-05-07T10:45:45.047Z,18.87
2017-05-07T10:48:11.619Z,18.26
2017-05-07T10:50:38.007Z,18.26
2017-05-07T10:53:10.516Z,18.58
2017-05-07T10:55:37.176Z,18.14
2017-05-07T10:58:03.474Z,18.47
2017-05-07T11:00:35.175Z,18.65
2017-05-07T11:03:02.191Z,18.88
2017-05-07T11:05:28.860Z,18.69
2017-05-07T11:07:55.336Z,18.55
2017-05-07T11:10:27.486Z,18.43
2017-05-07T11:12:54.231Z,17.79
2017-05-07T11:15:26.848Z,18.09
2017-05-07T11:17:53.245Z,18.27
2017-05-07T11:20:25.150Z,18.42
2017-05-07T11:22:56.964Z,18.88
2017-05-07T11:25:28.535Z,18.95
2017-05-07T11:27:58.058Z,18.95
2017-05-07T11:30:24.404Z,19.04
2017-05-07T11:32:52.394Z,18.78
2017-05-07T11:35:18.711Z,18.75
2017-05-07T11:37:48.574Z,18.66
2017-05-07T11:40:14.909Z,18.69
2017-05-07T11:42:48.394Z,18.52
2017-05-07T11:45:15.675Z,18.52
2017-05-07T11:47:47.425Z,18.42
2017-05-07T11:50:13.847Z,18.15
2017-05-07T11:52:40.154Z,18.31
2017-05-07T11:55:06.625Z,18.37
2017-05-07T11:57:33.382Z,17.97
2017-05-07T11:59:59.943Z,17.81
2017-05-07T12:02:27.232Z,18.31
2017-05-07T12:04:54.669Z,18.35
2017-05-07T12:07:26.468Z,18.67
2017-05-07T12:09:52.987Z,18.71
2017-05-07T12:12:19.403Z,18.86
2017-05-07T12:14:48.876Z,19.20
2017-05-07T12:17:15.748Z,18.69
2017-05-07T12:19:42.934Z,19.23
2017-05-07T12:22:09.419Z,19.27
2017-05-07T12:24:35.892Z,19.10
2017-05-07T12:27:02.220Z,19.38
2017-05-07T12:29:28.855Z,18.73
2017-05-07T12:32:00.607Z,19.22
2017-05-07T12:34:27.122Z,19.79
2017-05-07T12:36:58.849Z,19.76
2017-05-07T12:39:26.386Z,19.81
2017-05-07T12:41:52.714Z,19.56
2017-05-07T12:44:20.010Z,19.15
2017-05-07T12:46:47.622Z,19.75
2017-05-07T12:49:13.964Z,19.73
2017-05-07T12:51:40.789Z,20.00
2017-05-07T12:54:07.246Z,20.32
2017-05-07T12:56:35.293Z,19.82
2017-05-07T12:59:07.226Z,19.89
2017-05-07T13:01:33.836Z,20.15
2017-05-07T13:04:01.515Z,20.38
2017-05-07T13:06:33.150Z,21.19
2017-05-07T13:09:00.119Z,21.58
2017-05-07T13:11:30.675Z,20.78
2017-05-07T13:14:00.233Z,20.42
2017-05-07T13:16:26.585Z,21.32
2017-05-07T13:18:53.187Z,21.32
2017-05-07T13:21:25.666Z,21.58
2017-05-07T13:23:52.134Z,21.11
2017-05-07T13:26:34.041Z,21.77
2017-05-07T13:29:05.764Z,21.37
2017-05-07T13:31:33.100Z,21.45
2017-05-07T13:33:59.940Z,21.40
2017-05-07T13:36:31.816Z,21.60
2017-05-07T13:39:05.724Z,22.14
2017-05-07T13:41:32.149Z,21.79
2017-05-07T13:44:04.741Z,21.58
2017-05-07T13:46:31.841Z,21.78
2017-05-07T13:49:03.521Z,22.18
2017-05-07T13:51:29.959Z,21.66
2017-05-07T13:54:01.723Z,22.24
2017-05-07T13:56:30.275Z,22.20
2017-05-07T13:58:57.760Z,22.02
2017-05-07T14:01:29.500Z,21.78
2017-05-07T14:03:55.910Z,21.18
2017-05-07T14:06:22.612Z,21.15
2017-05-07T14:08:54.262Z,20.69
2017-05-07T14:11:21.014Z,20.16
2017-05-07T14:13:47.522Z,20.17
2017-05-07T14:16:14.968Z,19.83
2017-05-07T14:18:46.425Z,19.35
2017-05-07T14:21:12.886Z,19.23
2017-05-07T14:23:39.417Z,19.30
2017-05-07T14:26:06.082Z,19.03
2017-05-07T14:28:35.772Z,18.58
2017-05-07T14:31:02.544Z,18.61
2017-05-07T14:33:29.105Z,19.06
2017-05-07T14:35:55.486Z,18.62
2017-05-07T14:38:21.847Z,18.74
2017-05-07T14:40:48.170Z,18.40
2017-05-07T14:43:14.511Z,18.37
2017-05-07T14:45:40.901Z,18.42
2017-05-07T14:48:07.258Z,18.36
2017-05-07T14:50:33.741Z,18.26
2017-05-07T14:53:00.101Z,18.55
2017-05-07T14:55:26.440Z,18.32
2017-05-07T14:57:52.786Z,18.01
2017-05-07T15:00:19.174Z,17.82
2017-05-07T15:02:45.515Z,18.15
2017-05-07T15:05:11.859Z,18.01
2017-05-07T15:07:38.190Z,18.22
2017-05-07T15:10:04.659Z,18.43
2017-05-07T15:12:31.022Z,18.00
2017-05-07T15:14:57.393Z,18.13
2017-05-07T15:17:23.740Z,18.29
2017-05-07T15:19:50.158Z,17.99
2017-05-07T15:22:16.520Z,18.03
2017-05-07T15:24:42.842Z,18.28
2017-05-07T15:27:09.175Z,18.40
2017-05-07T15:29:35.545Z,18.30
2017-05-07T15:32:01.913Z,18.28
2017-05-07T15:34:28.789Z,18.37
2017-05-07T15:36:55.185Z,18.13
2017-05-07T15:39:21.531Z,18.13
2017-05-07T15:41:47.860Z,18.43
2017-05-07T15:44:14.185Z,18.37
2017-05-07T15:46:40.668Z,18.34
2017-05-07T15:49:07.021Z,18.50
2017-05-07T15:51:33.358Z,18.48
2017-05-07T15:53:59.720Z,18.44
2017-05-07T15:56:26.077Z,18.40
2017-05-07T15:58:52.423Z,18.47
2017-05-07T16:01:18.750Z,18.59
2017-05-07T16:03:45.088Z,18.43
2017-05-07T16:06:11.428Z,18.63
2017-05-07T16:08:37.812Z,18.65
2017-05-07T16:11:04.154Z,18.62
2017-05-07T16:13:30.476Z,18.65
2017-05-07T16:16:03.977Z,18.65
2017-05-07T16:18:45.483Z,18.30
2017-05-07T16:24:47.494Z,18.50
2017-05-07T16:27:20.650Z,18.44
2017-05-07T16:30:01.941Z,18.46
2017-05-07T16:32:28.296Z,18.29
2017-05-07T16:34:54.670Z,18.39
2017-05-07T16:37:21.052Z,18.41
2017-05-07T16:39:47.430Z,18.13
2017-05-07T16:42:26.264Z,17.96
2017-05-07T16:44:52.782Z,17.91
2017-05-07T16:47:19.128Z,17.88
2017-05-07T16:49:45.513Z,17.97
2017-05-07T16:52:11.884Z,17.69
2017-05-07T16:54:38.267Z,17.78
2017-05-07T16:57:04.641Z,17.72
2017-05-07T16:59:31.005Z,17.83
2017-05-07T17:01:57.467Z,17.54
2017-05-07T17:04:23.884Z,17.61
2017-05-07T17:06:56.533Z,17.49
2017-05-07T17:09:23.186Z,17.57
2017-05-07T17:11:49.563Z,17.52
2017-05-07T17:14:15.960Z,17.50
2017-05-07T17:16:42.345Z,17.43
2017-05-07T17:19:08.823Z,17.33
2017-05-07T17:21:35.287Z,17.40
2017-05-07T17:24:01.696Z,17.48
2017-05-07T17:26:28.152Z,17.33
2017-05-07T17:28:54.534Z,17.35
2017-05-07T17:31:20.862Z,17.29
2017-05-07T17:33:47.296Z,17.25
2017-05-07T17:36:14.099Z,17.13
2017-05-07T17:38:40.523Z,17.32
2017-05-07T17:41:06.977Z,17.16
2017-05-07T17:43:33.671Z,17.14
2017-05-07T17:46:00.028Z,17.10
2017-05-07T17:48:27.327Z,17.01
2017-05-07T17:50:53.702Z,17.12
2017-05-07T17:53:20.149Z,17.06
2017-05-07T17:55:46.546Z,17.08
2017-05-07T17:58:13.183Z,16.95
2017-05-07T18:00:39.995Z,17.02
2017-05-07T18:03:06.847Z,16.98
2017-05-07T18:05:34.824Z,17.08
2017-05-07T18:08:01.322Z,16.85
2017-05-07T18:10:28.200Z,17.24
2017-05-07T18:12:55.685Z,16.97
2017-05-07T18:15:22.482Z,16.95
2017-05-07T18:17:48.987Z,16.70
2017-05-07T18:20:16.619Z,16.99
2017-05-07T18:22:43.079Z,16.77
2017-05-07T18:25:09.533Z,16.77
2017-05-07T18:27:35.957Z,16.82
2017-05-07T18:30:02.441Z,16.80
2017-05-07T18:32:29.043Z,16.77
2017-05-07T18:34:55.499Z,16.62
2017-05-07T18:37:21.866Z,16.57
2017-05-07T18:39:48.249Z,16.60
2017-05-07T18:42:14.813Z,16.60
2017-05-07T18:44:42.244Z,16.51
2017-05-07T18:47:09.516Z,16.42
2017-05-07T18:49:37.251Z,16.65
2017-05-07T18:52:04.000Z,16.53
2017-05-07T18:54:30.603Z,16.39
2017-05-07T18:56:58.199Z,16.35
2017-05-07T18:59:24.644Z,16.34
2017-05-07T19:01:51.112Z,16.41
2017-05-07T19:04:18.047Z,16.19
2017-05-07T19:06:44.450Z,16.21
2017-05-07T19:09:11.274Z,16.23
2017-05-07T19:11:38.300Z,16.05
2017-05-07T19:14:05.903Z,16.23
2017-05-07T19:16:32.819Z,16.05
2017-05-07T19:18:59.363Z,16.08
2017-05-07T19:21:26.683Z,15.97
2017-05-07T19:23:53.635Z,15.98
2017-05-07T19:26:20.780Z,15.86
2017-05-07T19:28:47.253Z,15.91
2017-05-07T19:31:14.392Z,15.99
2017-05-07T19:33:42.132Z,16.06
2017-05-07T19:36:10.278Z,16.02
2017-05-07T19:38:37.622Z,15.93
2017-05-07T19:41:05.298Z,15.86
2017-05-07T19:43:32.036Z,16.06
2017-05-07T19:45:58.627Z,16.00
2017-05-07T19:48:25.806Z,15.95
2017-05-07T19:50:52.940Z,15.78
2017-05-07T19:53:19.980Z,15.82
2017-05-07T19:55:46.607Z,16.06
2017-05-07T19:58:13.203Z,16.09
2017-05-07T20:00:39.930Z,15.75
2017-05-07T20:03:07.712Z,15.73
2017-05-07T20:05:34.766Z,15.81
2017-05-07T20:08:02.022Z,15.60
2017-05-07T20:10:28.605Z,15.56
2017-05-07T20:12:56.400Z,15.42
2017-05-07T20:15:23.943Z,15.51
2017-05-07T20:17:50.739Z,15.47
2017-05-07T20:20:17.801Z,15.30
2017-05-07T20:22:44.326Z,15.64
2017-05-07T20:25:11.283Z,15.37
2017-05-07T20:27:38.476Z,15.48
2017-05-07T20:30:05.608Z,15.57
2017-05-07T20:32:32.034Z,15.08
2017-05-07T20:34:58.467Z,15.50
2017-05-07T20:37:24.808Z,15.59
2017-05-07T20:39:51.798Z,15.13
2017-05-07T20:42:18.130Z,15.25
2017-05-07T20:44:44.560Z,14.94
2017-05-07T20:47:11.124Z,14.98
2017-05-07T20:49:37.490Z,15.01
2017-05-07T20:52:03.908Z,14.79
2017-05-07T20:54:30.267Z,15.04
2017-05-07T20:56:56.615Z,14.84
2017-05-07T20:59:22.938Z,14.85
2017-05-07T21:01:49.289Z,14.81
2017-05-07T21:04:15.613Z,14.82
2017-05-07T21:06:41.982Z,14.81
2017-05-07T21:09:08.309Z,14.84
2017-05-07T21:11:34.627Z,14.91
2017-05-07T21:14:00.918Z,14.91
2017-05-07T21:16:27.291Z,14.37
2017-05-07T21:18:53.625Z,14.39
2017-05-07T21:21:19.934Z,14.62
2017-05-07T21:23:46.247Z,14.41
2017-05-07T21:26:12.570Z,14.57
2017-05-07T21:28:38.934Z,14.56
2017-05-07T21:31:05.287Z,14.34
2017-05-07T21:33:31.634Z,14.41
2017-05-07T21:35:58.023Z,14.20
2017-05-07T21:38:24.379Z,14.50
2017-05-07T21:40:50.730Z,14.62
2017-05-07T21:43:17.053Z,14.14
2017-05-07T21:45:43.380Z,13.98
2017-05-07T21:48:09.722Z,14.12
2017-05-07T21:50:36.074Z,13.91
2017-05-07T21:53:02.408Z,13.82
2017-05-07T21:55:28.740Z,14.09
2017-05-07T21:57:55.051Z,14.14
2017-05-07T22:00:21.372Z,13.76
2017-05-07T22:02:47.736Z,13.74
2017-05-07T22:05:14.088Z,13.57
2017-05-07T22:07:40.437Z,13.93
2017-05-07T22:10:06.795Z,13.41
2017-05-07T22:12:33.358Z,13.62
2017-05-07T22:14:59.720Z,13.88
2017-05-07T22:17:26.041Z,12.99
2017-05-07T22:19:52.418Z,13.17
2017-05-07T22:22:18.811Z,13.30
2017-05-07T22:24:45.198Z,13.01
2017-05-07T22:27:11.532Z,13.25
2017-05-07T22:29:37.877Z,13.65
2017-05-07T22:32:04.540Z,13.41
2017-05-07T22:34:30.885Z,12.94
2017-05-07T22:36:57.236Z,13.51
2017-05-07T22:39:23.613Z,12.95
2017-05-07T22:41:49.980Z,13.11
2017-05-07T22:44:16.324Z,13.17
2017-05-07T22:46:42.701Z,13.28
2017-05-07T22:49:09.324Z,13.69
2017-05-07T22:51:36.032Z,13.04
2017-05-07T22:54:02.445Z,12.62
2017-05-07T22:56:29.572Z,12.79
2017-05-07T22:58:55.962Z,12.49
2017-05-07T23:01:23.727Z,12.46
2017-05-07T23:03:50.291Z,12.29
2017-05-07T23:06:16.703Z,12.48
2017-05-07T23:08:43.049Z,12.57
2017-05-07T23:11:10.229Z,12.03
2017-05-07T23:13:37.364Z,12.28
2017-05-07T23:16:04.684Z,13.09
2017-05-07T23:18:31.833Z,12.09
2017-05-07T23:20:58.840Z,12.49
2017-05-07T23:23:25.305Z,12.73
2017-05-07T23:25:51.666Z,12.41
2017-05-07T23:28:17.991Z,12.54
2017-05-07T23:30:44.318Z,12.10
2017-05-07T23:33:10.644Z,11.84
2017-05-07T23:35:37.379Z,11.25
2017-05-07T23:38:03.720Z,12.01
2017-05-07T23:40:30.173Z,11.92
2017-05-07T23:42:56.562Z,10.96
2017-05-07T23:45:22.893Z,12.49
2017-05-07T23:47:49.283Z,11.88
2017-05-07T23:50:15.776Z,12.11
2017-05-07T23:52:42.119Z,11.50
2017-05-07T23:55:08.446Z,11.10
2017-05-07T23:57:34.762Z,11.47
